Kyokuho Maru No.15 — JI3715 — position and weather

sailwx.info

Track history (hours):
 
Tides and Currents Weather Stations Pressure Air Temp Water Temp Dewpoint Dewpoint Depression Visibility Wind Speed Wind Dir Waves Ship Positions

Kyokuho Maru No.15

Last reported at 2015-Jul-01 01:33 UTC. Time now 2015-Jul-01 01:55 UTC.
Position N 35°35' E 139°52'.

Length 63 m; draft 3.6 m.

Type: Tanker. MMSI: 431301714.

Date/timePositionNaut miles runAvg speedWind from/ knotsBaromVisibWave heightAir tempDewpointWater temp
2015-Jul-01 01:33N 35°35' E 139°52'0 0.0
2015-Jul-01 00:31N 35°35' E 139°52'0 0.0
2015-Jun-30 23:31N 35°35' E 139°52'0 0.0
2015-Jun-30 22:10N 35°35' E 139°52'0 0.0
2015-Jun-30 21:31N 35°35' E 139°52'0 0.0
2015-Jun-30 20:31N 35°35' E 139°52'0 0.0
2015-Jun-30 19:28N 35°35' E 139°52'0 0.0
2015-Jun-30 18:28N 35°35' E 139°52'0 0.1
2015-Jun-30 17:31N 35°35' E 139°52'0 0.0
2015-Jun-30 16:31N 35°35' E 139°52'0 0.1
2015-Jun-30 15:33N 35°35' E 139°52'1111.0
2015-Jun-30 14:33N 35°25' E 139°47'1111.2
2015-Jun-30 13:33N 35°14' E 139°47'1211.7
2015-Jun-30 12:33N 35°02' E 139°44'11 9.7
2015-Jun-30 11:25N 34°52' E 139°50'1412.0
2015-Jun-30 10:15N 34°58' E 140°06'66 9.8
2015-Jun-30 03:28N 35°56' E 140°45'77 5.2
2015-Jun-29 12:33N 34°57' E 139°44'1111.0
2015-Jun-29 11:33N 35°08' E 139°45'1211.9
2015-Jun-29 10:33N 35°19' E 139°43'1110.9
2015-Jun-29 09:33N 35°29' E 139°50'7 7.3
2015-Jun-29 08:33N 35°27' E 139°58'0 0.0
2015-Jun-29 07:33N 35°27' E 139°58'0 0.0
2015-Jun-29 06:33N 35°27' E 139°58'0 0.0
2015-Jun-29 05:33N 35°27' E 139°58'4 4.0
2015-Jun-29 04:33N 35°30' E 140°02'0 0.0
2015-Jun-29 03:33N 35°30' E 140°02'0 0.0
2015-Jun-29 02:33N 35°30' E 140°02'0 0.0
2015-Jun-29 01:33N 35°30' E 140°02'0 0.0
2015-Jun-29 00:33N 35°30' E 140°02'1 1.4
2015-Jun-28 23:33N 35°31' E 140°01'7 7.0
2015-Jun-28 22:33N 35°36' E 140°06'0 0.0
2015-Jun-28 21:32N 35°36' E 140°06'0 0.0
2015-Jun-28 20:32N 35°36' E 140°06'0 0.0
2015-Jun-28 19:29N 35°36' E 140°06'0 0.0
2015-Jun-28 18:32N 35°36' E 140°06'0 0.0
2015-Jun-28 17:29N 35°36' E 140°06'0 0.0
2015-Jun-28 16:32N 35°36' E 140°06'0 0.0
2015-Jun-28 15:32N 35°36' E 140°06'0 0.0
2015-Jun-28 14:29N 35°36' E 140°06'0 0.0
2015-Jun-28 13:29N 35°36' E 140°06'0 0.0
2015-Jun-28 12:23N 35°36' E 140°06'0 0.0
2015-Jun-28 11:32N 35°36' E 140°06'0 0.0
2015-Jun-28 10:32N 35°36' E 140°06'0 0.0
2015-Jun-28 09:32N 35°36' E 140°06'0 0.0
2015-Jun-28 08:32N 35°36' E 140°06'0 0.0
2015-Jun-28 07:32N 35°36' E 140°06'0 0.0
2015-Jun-28 06:32N 35°36' E 140°06'1 0.6
2015-Jun-28 05:34N 35°36' E 140°06'1211.6
2015-Jun-28 04:33N 35°31' E 139°53'6 6.0
2015-Jun-28 03:33N 35°32' E 139°45'0 0.0
2015-Jun-28 02:34N 35°32' E 139°45'0 0.0
2015-Jun-28 01:33N 35°32' E 139°45'0 0.0
2015-Jun-28 00:33N 35°32' E 139°45'0 0.0
2015-Jun-27 23:33N 35°32' E 139°45'4 4.0
2015-Jun-27 22:34N 35°29' E 139°49'0 0.0
2015-Jun-27 21:32N 35°29' E 139°49'0 0.0
2015-Jun-27 20:32N 35°29' E 139°49'0 0.0
2015-Jun-27 19:32N 35°29' E 139°49'0 0.0
2015-Jun-27 18:32N 35°29' E 139°49'0 0.0
2015-Jun-27 17:32N 35°29' E 139°49'0 0.0
2015-Jun-27 16:32N 35°29' E 139°49'0 0.1
2015-Jun-27 15:32N 35°29' E 139°49'0 0.0
2015-Jun-27 14:32N 35°29' E 139°49'3 3.6
2015-Jun-27 13:33N 35°26' E 139°47'1110.8
2015-Jun-27 12:33N 35°15' E 139°47'1111.3
2015-Jun-27 11:33N 35°04' E 139°43'  
2015-Jun-22 13:27N 34°55' E 140°02'1111.3
2015-Jun-22 12:30N 35°01' E 140°13'2010.3
2015-Jun-22 10:33N 35°14' E 140°32'44 3.6
2015-Jun-21 22:28N 35°57' E 140°42'1 0.7
2015-Jun-21 21:33N 35°57' E 140°42'0 0.0
2015-Jun-21 20:32N 35°57' E 140°42'0 0.0
2015-Jun-21 19:33N 35°57' E 140°42'0 0.0
2015-Jun-21 18:33N 35°57' E 140°42'0 0.0
2015-Jun-21 17:33N 35°57' E 140°42'0 0.0
2015-Jun-21 16:33N 35°57' E 140°42'0 0.1
2015-Jun-21 15:33N 35°57' E 140°42'0 0.0
2015-Jun-21 14:33N 35°57' E 140°42'0 0.0
2015-Jun-21 13:33N 35°57' E 140°42'0 0.0
2015-Jun-21 12:17N 35°57' E 140°42'0 0.0
2015-Jun-21 11:33N 35°57' E 140°42'19 7.6
2015-Jun-21 09:04N 35°41' E 140°54'  
Track history (hours):
 
Tides and Currents Weather Stations Pressure Air Temp Water Temp Dewpoint Dewpoint Depression Visibility Wind Speed Wind Dir Waves Ship Positions

Kyokuho Maru No.15

Last reported at 2015-Jul-01 01:33 UTC. Time now 2015-Jul-01 01:55 UTC.
Position N 35°35' E 139°52'.

Length 63 m; draft 3.6 m.

Type: Tanker. MMSI: 431301714.

Date/timePositionNaut miles runAvg speedWind from/ knotsBaromVisibWave heightAir tempDewpointWater temp
2015-Jul-01 01:33N 35°35' E 139°52'0 0.0
2015-Jul-01 00:31N 35°35' E 139°52'0 0.0
2015-Jun-30 23:31N 35°35' E 139°52'0 0.0
2015-Jun-30 22:10N 35°35' E 139°52'0 0.0
2015-Jun-30 21:31N 35°35' E 139°52'0 0.0
2015-Jun-30 20:31N 35°35' E 139°52'0 0.0
2015-Jun-30 19:28N 35°35' E 139°52'0 0.0
2015-Jun-30 18:28N 35°35' E 139°52'0 0.1
2015-Jun-30 17:31N 35°35' E 139°52'0 0.0
2015-Jun-30 16:31N 35°35' E 139°52'0 0.1
2015-Jun-30 15:33N 35°35' E 139°52'1111.0
2015-Jun-30 14:33N 35°25' E 139°47'1111.2
2015-Jun-30 13:33N 35°14' E 139°47'1211.7
2015-Jun-30 12:33N 35°02' E 139°44'11 9.7
2015-Jun-30 11:25N 34°52' E 139°50'1412.0
2015-Jun-30 10:15N 34°58' E 140°06'66 9.8
2015-Jun-30 03:28N 35°56' E 140°45'77 5.2
2015-Jun-29 12:33N 34°57' E 139°44'1111.0
2015-Jun-29 11:33N 35°08' E 139°45'1211.9
2015-Jun-29 10:33N 35°19' E 139°43'1110.9
2015-Jun-29 09:33N 35°29' E 139°50'7 7.3
2015-Jun-29 08:33N 35°27' E 139°58'0 0.0
2015-Jun-29 07:33N 35°27' E 139°58'0 0.0
2015-Jun-29 06:33N 35°27' E 139°58'0 0.0
2015-Jun-29 05:33N 35°27' E 139°58'4 4.0
2015-Jun-29 04:33N 35°30' E 140°02'0 0.0
2015-Jun-29 03:33N 35°30' E 140°02'0 0.0
2015-Jun-29 02:33N 35°30' E 140°02'0 0.0
2015-Jun-29 01:33N 35°30' E 140°02'0 0.0
2015-Jun-29 00:33N 35°30' E 140°02'1 1.4
2015-Jun-28 23:33N 35°31' E 140°01'7 7.0
2015-Jun-28 22:33N 35°36' E 140°06'0 0.0
2015-Jun-28 21:32N 35°36' E 140°06'0 0.0
2015-Jun-28 20:32N 35°36' E 140°06'0 0.0
2015-Jun-28 19:29N 35°36' E 140°06'0 0.0
2015-Jun-28 18:32N 35°36' E 140°06'0 0.0
2015-Jun-28 17:29N 35°36' E 140°06'0 0.0
2015-Jun-28 16:32N 35°36' E 140°06'0 0.0
2015-Jun-28 15:32N 35°36' E 140°06'0 0.0
2015-Jun-28 14:29N 35°36' E 140°06'0 0.0
2015-Jun-28 13:29N 35°36' E 140°06'0 0.0
2015-Jun-28 12:23N 35°36' E 140°06'0 0.0
2015-Jun-28 11:32N 35°36' E 140°06'0 0.0
2015-Jun-28 10:32N 35°36' E 140°06'0 0.0
2015-Jun-28 09:32N 35°36' E 140°06'0 0.0
2015-Jun-28 08:32N 35°36' E 140°06'0 0.0
2015-Jun-28 07:32N 35°36' E 140°06'0 0.0
2015-Jun-28 06:32N 35°36' E 140°06'1 0.6
2015-Jun-28 05:34N 35°36' E 140°06'1211.6
2015-Jun-28 04:33N 35°31' E 139°53'6 6.0
2015-Jun-28 03:33N 35°32' E 139°45'0 0.0
2015-Jun-28 02:34N 35°32' E 139°45'0 0.0
2015-Jun-28 01:33N 35°32' E 139°45'0 0.0
2015-Jun-28 00:33N 35°32' E 139°45'0 0.0
2015-Jun-27 23:33N 35°32' E 139°45'4 4.0
2015-Jun-27 22:34N 35°29' E 139°49'0 0.0
2015-Jun-27 21:32N 35°29' E 139°49'0 0.0
2015-Jun-27 20:32N 35°29' E 139°49'0 0.0
2015-Jun-27 19:32N 35°29' E 139°49'0 0.0
2015-Jun-27 18:32N 35°29' E 139°49'0 0.0
2015-Jun-27 17:32N 35°29' E 139°49'0 0.0
2015-Jun-27 16:32N 35°29' E 139°49'0 0.1
2015-Jun-27 15:32N 35°29' E 139°49'0 0.0
2015-Jun-27 14:32N 35°29' E 139°49'3 3.6
2015-Jun-27 13:33N 35°26' E 139°47'1110.8
2015-Jun-27 12:33N 35°15' E 139°47'1111.3
2015-Jun-27 11:33N 35°04' E 139°43'  
2015-Jun-22 13:27N 34°55' E 140°02'1111.3
2015-Jun-22 12:30N 35°01' E 140°13'2010.3
2015-Jun-22 10:33N 35°14' E 140°32'44 3.6
2015-Jun-21 22:28N 35°57' E 140°42'1 0.7
2015-Jun-21 21:33N 35°57' E 140°42'0 0.0
2015-Jun-21 20:32N 35°57' E 140°42'0 0.0
2015-Jun-21 19:33N 35°57' E 140°42'0 0.0
2015-Jun-21 18:33N 35°57' E 140°42'0 0.0
2015-Jun-21 17:33N 35°57' E 140°42'0 0.0
2015-Jun-21 16:33N 35°57' E 140°42'0 0.1
2015-Jun-21 15:33N 35°57' E 140°42'0 0.0
2015-Jun-21 14:33N 35°57' E 140°42'0 0.0
2015-Jun-21 13:33N 35°57' E 140°42'0 0.0
2015-Jun-21 12:17N 35°57' E 140°42'0 0.0
2015-Jun-21 11:33N 35°57' E 140°42'19 7.6
2015-Jun-21 09:04N 35°41' E 140°54'  

Dump ship's entire track history